Time;durP1;ratioP1;P1;durP2;ratioP2;P2;SDS_P1;SDS_P2;PMS_P1;PMS_P2;Temp;Humidity;BMP_temperature;BMP_pressure;BME280_temperature;BME280_humidity;BME280_pressure;Samples;Min_cycle;Max_cycle;Signal;HPM_P1;HPM_P2
2022/12/07 00:00:27;;;;;;;;;;;;;;;17.31;51.54;100984.95;102033;1329;60474;-84
2022/12/07 00:02:52;;;;;;;;;;;;;;;17.32;51.41;100990.63;102108;1333;60999;-83
2022/12/07 00:05:18;;;;;;;;;;;;;;;17.31;51.44;100988.89;101962;1323;60601;-82
2022/12/07 00:07:43;;;;;;;;;;;;;;;17.31;51.54;100995.77;102128;1327;60589;-83
2022/12/07 00:10:08;;;;;;;;;;;;;;;17.31;51.47;100991.33;102074;1327;73690;-83
2022/12/07 00:12:35;;;;;;;;;;;;;;;17.32;51.53;100988.80;102111;1326;59344;-82
2022/12/07 00:15:00;;;;;;;;;;;;;;;17.32;51.55;100983.83;102125;1326;60343;-83
2022/12/07 00:17:26;;;;;;;;;;;;;;;17.32;51.46;100988.48;102060;1327;60546;-84
2022/12/07 00:19:51;;;;;;;;;;;;;;;17.32;51.41;100996.46;101980;1335;60591;-84
2022/12/07 00:22:16;;;;;;;;;;;;;;;17.32;51.38;100991.98;102098;1329;60454;-83
2022/12/07 00:24:42;;;;;;;;;;;;;;;17.32;51.50;100994.31;102097;1329;60508;-83
2022/12/07 00:27:07;;;;;;;;;;;;;;;17.33;51.35;100994.44;102107;1329;60590;-83
2022/12/07 00:29:33;;;;;;;;;;;;;;;17.34;51.38;100984.10;102061;1333;60999;-84
2022/12/07 00:31:58;;;;;;;;;;;;;;;17.34;51.51;100984.98;102090;1326;60455;-83
2022/12/07 00:34:23;;;;;;;;;;;;;;;17.33;51.48;100992.48;102128;1326;60542;-83
2022/12/07 00:36:49;;;;;;;;;;;;;;;17.34;51.47;100996.37;102088;1327;60546;-83
2022/12/07 00:39:14;;;;;;;;;;;;;;;17.34;51.37;100998.13;102083;1326;60529;-83
2022/12/07 00:41:40;;;;;;;;;;;;;;;17.34;51.41;100991.73;102112;1326;61643;-84
2022/12/07 00:44:05;;;;;;;;;;;;;;;17.35;51.45;100990.30;102108;1332;60464;-83
2022/12/07 00:46:31;;;;;;;;;;;;;;;17.35;51.39;100989.22;102083;1329;73684;-84
2022/12/07 00:49:19;;;;;;;;;;;;;;;17.35;51.47;100985.48;102098;1326;60521;-83
2022/12/07 00:51:45;;;;;;;;;;;;;;;17.35;51.41;100984.73;101865;1336;60495;-83
2022/12/07 00:54:10;;;;;;;;;;;;;;;17.35;51.30;100977.79;101804;1335;60584;-83
2022/12/07 00:56:36;;;;;;;;;;;;;;;17.36;51.31;100979.18;101822;1335;60746;-83
2022/12/07 00:59:01;;;;;;;;;;;;;;;17.36;51.34;100984.85;101827;1335;60484;-84
2022/12/07 01:01:28;;;;;;;;;;;;;;;17.36;51.29;100985.55;101867;1335;60583;-83
2022/12/07 01:03:53;;;;;;;;;;;;;;;17.37;51.47;100982.84;101820;1338;60616;-84
2022/12/07 01:06:19;;;;;;;;;;;;;;;17.37;51.43;100977.51;101814;1333;60603;-84
2022/12/07 01:08:44;;;;;;;;;;;;;;;17.38;51.37;100978.38;101833;1335;60502;-83
2022/12/07 01:11:11;;;;;;;;;;;;;;;17.38;51.24;100979.44;101814;1335;60477;-83
2022/12/07 01:13:37;;;;;;;;;;;;;;;17.38;51.38;100980.84;101798;1333;60403;-83
2022/12/07 01:16:03;;;;;;;;;;;;;;;17.38;51.29;100977.98;101833;1336;60976;-83
2022/12/07 01:18:29;;;;;;;;;;;;;;;17.39;51.33;100971.02;101805;1325;60633;-83
2022/12/07 01:21:21;;;;;;;;;;;;;;;17.38;51.29;100967.84;101833;1335;60503;-84
2022/12/07 01:23:46;;;;;;;;;;;;;;;17.38;51.26;100967.29;101801;1338;60493;-83
2022/12/07 01:26:13;;;;;;;;;;;;;;;17.39;51.34;100969.24;101812;1333;60562;-84
2022/12/07 01:28:38;;;;;;;;;;;;;;;17.39;51.24;100971.56;101878;1333;60525;-83
2022/12/07 01:31:05;;;;;;;;;;;;;;;17.39;51.28;100967.27;102024;1329;60584;-83
2022/12/07 01:33:31;;;;;;;;;;;;;;;17.39;51.32;100958.92;101986;1326;60671;-84
2022/12/07 01:36:17;;;;;;;;;;;;;;;17.40;51.41;100956.73;102115;1327;59250;-84
2022/12/07 01:38:42;;;;;;;;;;;;;;;17.40;51.34;100954.06;102087;1330;73477;-84
2022/12/07 01:41:08;;;;;;;;;;;;;;;17.40;51.34;100953.70;102084;1326;60511;-84
2022/12/07 01:43:33;;;;;;;;;;;;;;;17.40;51.33;100956.55;102090;1326;60502;-83
2022/12/07 01:45:59;;;;;;;;;;;;;;;17.40;51.33;100952.96;102022;1329;60595;-83
2022/12/07 01:48:26;;;;;;;;;;;;;;;17.40;51.30;100956.16;102131;1326;60510;-84
2022/12/07 01:50:51;;;;;;;;;;;;;;;17.40;51.31;100962.03;102088;1330;72584;-84
2022/12/07 01:53:17;;;;;;;;;;;;;;;17.40;51.16;100962.03;102005;1330;60613;-84
2022/12/07 01:55:43;;;;;;;;;;;;;;;17.41;51.32;100962.00;102077;1329;60524;-84
2022/12/07 01:58:09;;;;;;;;;;;;;;;17.41;51.22;100958.64;102082;1329;60997;-83
2022/12/07 02:00:34;;;;;;;;;;;;;;;17.42;51.22;100954.86;102104;1327;60477;-84
2022/12/07 02:03:03;;;;;;;;;;;;;;;17.42;51.39;100949.86;102149;1326;60520;-84
2022/12/07 02:05:29;;;;;;;;;;;;;;;17.42;51.24;100949.48;102122;1326;74678;-84
2022/12/07 02:07:55;;;;;;;;;;;;;;;17.42;51.20;100946.28;102069;1327;60476;-83
2022/12/07 02:10:22;;;;;;;;;;;;;;;17.42;51.14;100939.19;102021;1326;60490;-83
2022/12/07 02:12:49;;;;;;;;;;;;;;;17.42;51.18;100936.48;102079;1329;60379;-83
2022/12/07 02:15:14;;;;;;;;;;;;;;;17.42;51.23;100934.34;102102;1326;60630;-83
2022/12/07 02:17:45;;;;;;;;;;;;;;;17.43;51.28;100937.36;102140;1326;60453;-84
2022/12/07 02:20:20;;;;;;;;;;;;;;;17.42;51.11;100928.84;102083;1326;60495;-84
2022/12/07 02:23:04;;;;;;;;;;;;;;;17.43;51.20;100923.46;102057;1326;72641;-84
2022/12/07 02:25:36;;;;;;;;;;;;;;;17.43;51.21;100927.02;102074;1329;74020;-84
2022/12/07 02:28:05;;;;;;;;;;;;;;;17.43;51.24;100930.40;102078;1323;60960;-83
2022/12/07 02:30:31;;;;;;;;;;;;;;;17.43;51.15;100932.52;102084;1326;60507;-83
2022/12/07 02:32:57;;;;;;;;;;;;;;;17.44;51.18;100926.29;102105;1326;60585;-83
2022/12/07 02:35:31;;;;;;;;;;;;;;;17.45;51.13;100930.16;102086;1327;60485;-84
2022/12/07 02:38:02;;;;;;;;;;;;;;;17.45;51.15;100926.40;102120;1326;60498;-84
2022/12/07 02:40:47;;;;;;;;;;;;;;;17.45;51.18;100925.89;102137;1333;61342;-84
2022/12/07 02:43:20;;;;;;;;;;;;;;;17.45;51.08;100928.16;102083;1326;73675;-84
2022/12/07 02:45:48;;;;;;;;;;;;;;;17.45;51.10;100921.23;102106;1321;74827;-84
2022/12/07 02:48:14;;;;;;;;;;;;;;;17.46;51.21;100912.98;102149;1329;60408;-83
2022/12/07 02:50:45;;;;;;;;;;;;;;;17.46;51.14;100908.55;102112;1326;61176;-85
2022/12/07 02:53:29;;;;;;;;;;;;;;;17.47;51.16;100903.52;102100;1326;73586;-83
2022/12/07 02:55:55;;;;;;;;;;;;;;;17.46;51.07;100894.11;102113;1330;74672;-84
2022/12/07 02:58:50;;;;;;;;;;;;;;;17.47;51.00;100895.32;102003;1333;60528;-84
2022/12/07 03:01:34;;;;;;;;;;;;;;;17.47;51.14;100891.57;101823;1334;60414;-84
2022/12/07 03:04:07;;;;;;;;;;;;;;;17.48;50.96;100888.36;101819;1335;73588;-84
2022/12/07 03:06:33;;;;;;;;;;;;;;;17.48;51.07;100896.16;101824;1339;74160;-83
2022/12/07 03:09:06;;;;;;;;;;;;;;;17.49;51.04;100897.74;101821;1333;60622;-84
2022/12/07 03:11:38;;;;;;;;;;;;;;;17.49;51.14;100897.35;101793;1335;61073;-83
2022/12/07 03:14:33;;;;;;;;;;;;;;;17.49;51.09;100905.71;101829;1335;72950;-83
2022/12/07 03:17:04;;;;;;;;;;;;;;;17.49;51.05;100908.39;101279;1347;74762;-84
2022/12/07 03:19:29;;;;;;;;;;;;;;;17.49;51.00;100911.39;101138;1347;61154;-83
2022/12/07 03:22:00;;;;;;;;;;;;;;;17.50;50.99;100911.89;101081;1344;60518;-84
2022/12/07 03:24:33;;;;;;;;;;;;;;;17.50;51.05;100915.79;101310;1343;73664;-83
2022/12/07 03:27:07;;;;;;;;;;;;;;;17.50;51.03;100920.44;101271;1343;73732;-83
2022/12/07 03:29:36;;;;;;;;;;;;;;;17.50;50.99;100916.69;101102;1347;60659;-83
2022/12/07 03:32:03;;;;;;;;;;;;;;;17.50;50.94;100927.18;101104;1341;60675;-83
2022/12/07 03:34:33;;;;;;;;;;;;;;;17.50;51.00;100926.48;101109;1344;73331;-84
2022/12/07 03:37:05;;;;;;;;;;;;;;;17.51;50.97;100921.98;101129;1343;73590;-84
2022/12/07 03:39:41;;;;;;;;;;;;;;;17.50;50.99;100923.98;101708;1341;60509;-84
2022/12/07 03:42:07;;;;;;;;;;;;;;;17.51;50.84;100923.79;101694;1329;61304;-84
2022/12/07 03:44:32;;;;;;;;;;;;;;;17.51;50.93;100926.79;101621;1342;60635;-84
2022/12/07 03:47:04;;;;;;;;;;;;;;;17.51;51.04;100928.40;101634;1337;60524;-84
2022/12/07 03:49:32;;;;;;;;;;;;;;;17.51;50.94;100925.90;101671;1342;60414;-84
2022/12/07 03:52:18;;;;;;;;;;;;;;;17.51;50.89;100926.59;101686;1337;61228;-84
2022/12/07 03:54:59;;;;;;;;;;;;;;;17.52;50.97;100923.90;102024;1329;72728;-83
2022/12/07 03:57:25;;;;;;;;;;;;;;;17.52;50.93;100927.81;102095;1327;74605;-84
2022/12/07 03:59:50;;;;;;;;;;;;;;;17.52;50.98;100925.32;101986;1329;60933;-84
2022/12/07 04:02:16;;;;;;;;;;;;;;;17.53;50.91;100922.23;102006;1329;60609;-83
2022/12/07 04:04:41;;;;;;;;;;;;;;;17.53;50.89;100921.86;102103;1330;60526;-83
2022/12/07 04:07:06;;;;;;;;;;;;;;;17.53;50.96;100922.41;102124;1326;60531;-84
2022/12/07 04:09:32;;;;;;;;;;;;;;;17.53;50.90;100922.08;102106;1332;73612;-83
2022/12/07 04:11:57;;;;;;;;;;;;;;;17.53;50.93;100920.65;102103;1329;60532;-83
2022/12/07 04:14:23;;;;;;;;;;;;;;;17.53;50.96;100919.02;102070;1329;60506;-83
2022/12/07 04:16:49;;;;;;;;;;;;;;;17.53;50.98;100923.09;102046;1327;60597;-82
2022/12/07 04:19:14;;;;;;;;;;;;;;;17.53;50.88;100922.94;102074;1327;60498;-82
2022/12/07 04:21:40;;;;;;;;;;;;;;;17.53;50.90;100917.94;102137;1329;60532;-84
2022/12/07 04:24:06;;;;;;;;;;;;;;;17.54;51.03;100919.17;102099;1329;60496;-83
2022/12/07 04:26:32;;;;;;;;;;;;;;;17.54;50.78;100916.66;102013;1336;60505;-84
2022/12/07 04:28:57;;;;;;;;;;;;;;;17.54;50.80;100917.54;102082;1332;60512;-84
2022/12/07 04:31:23;;;;;;;;;;;;;;;17.54;50.92;100913.09;101999;1329;60565;-83
2022/12/07 04:33:48;;;;;;;;;;;;;;;17.54;50.86;100911.85;102109;1332;60513;-84
2022/12/07 04:36:13;;;;;;;;;;;;;;;17.54;50.89;100918.42;102023;1329;60518;-84
2022/12/07 04:38:39;;;;;;;;;;;;;;;17.54;50.93;100916.10;102115;1332;60460;-84
2022/12/07 04:41:05;;;;;;;;;;;;;;;17.54;50.86;100912.54;101963;1328;60587;-83
2022/12/07 04:43:33;;;;;;;;;;;;;;;17.55;50.95;100907.70;101961;1334;60593;-84
2022/12/07 04:45:58;;;;;;;;;;;;;;;17.54;50.85;100908.25;102016;1329;60401;-84
2022/12/07 04:48:24;;;;;;;;;;;;;;;17.54;50.86;100907.56;102067;1329;60468;-84
2022/12/07 04:50:49;;;;;;;;;;;;;;;17.56;50.90;100906.94;101969;1329;60525;-83
2022/12/07 04:53:15;;;;;;;;;;;;;;;17.56;50.81;100908.19;102079;1327;60505;-84
2022/12/07 04:55:40;;;;;;;;;;;;;;;17.56;50.85;100908.70;101971;1327;73686;-84
2022/12/07 04:58:07;;;;;;;;;;;;;;;17.56;50.79;100909.40;102049;1330;60557;-84
2022/12/07 05:00:32;;;;;;;;;;;;;;;17.57;50.76;100909.21;101998;1328;60595;-84
2022/12/07 05:02:58;;;;;;;;;;;;;;;17.56;50.68;100909.59;101991;1332;73313;-84
2022/12/07 05:05:24;;;;;;;;;;;;;;;17.56;50.77;100905.67;101978;1334;60596;-84
2022/12/07 05:07:49;;;;;;;;;;;;;;;17.56;50.65;100901.24;101937;1327;60527;-84
2022/12/07 05:10:15;;;;;;;;;;;;;;;17.57;50.74;100901.92;101941;1331;60556;-84
2022/12/07 05:12:41;;;;;;;;;;;;;;;17.56;50.65;100902.99;102025;1329;60579;-84
2022/12/07 05:15:07;;;;;;;;;;;;;;;17.57;50.61;100900.45;101965;1332;61633;-83
2022/12/07 05:17:32;;;;;;;;;;;;;;;17.57;50.48;100897.05;102029;1332;60595;-83
2022/12/07 05:19:58;;;;;;;;;;;;;;;17.57;50.48;100902.78;101959;1330;60586;-83
2022/12/07 05:22:47;;;;;;;;;;;;;;;17.56;50.49;100903.52;101996;1330;60492;-84
2022/12/07 05:25:12;;;;;;;;;;;;;;;17.55;50.29;100904.81;101820;1339;72616;-85
2022/12/07 05:27:38;;;;;;;;;;;;;;;17.55;50.15;100909.30;101737;1334;60598;-84
2022/12/07 05:30:04;;;;;;;;;;;;;;;17.54;50.28;100911.86;101731;1339;60562;-84
2022/12/07 05:32:30;;;;;;;;;;;;;;;17.52;50.11;100908.61;101567;1324;60525;-84
2022/12/07 05:35:25;;;;;;;;;;;;;;;17.50;49.95;100910.30;101727;1324;59435;-85
2022/12/07 05:37:51;;;;;;;;;;;;;;;17.47;49.93;100909.92;101454;1336;73982;-83
2022/12/07 05:40:16;;;;;;;;;;;;;;;17.45;49.75;100906.84;101118;1332;60575;-84
2022/12/07 05:42:43;;;;;;;;;;;;;;;17.42;49.79;100905.70;100927;1330;60594;-84
2022/12/07 05:45:09;;;;;;;;;;;;;;;17.41;49.72;100909.71;100943;1330;60522;-83
2022/12/07 05:47:34;;;;;;;;;;;;;;;17.39;49.62;100910.55;101140;1331;60664;-83
2022/12/07 05:50:00;;;;;;;;;;;;;;;17.37;49.63;100909.02;101181;1338;60509;-84
2022/12/07 05:52:25;;;;;;;;;;;;;;;17.35;49.59;100914.65;101038;1336;58874;-85
2022/12/07 05:54:52;;;;;;;;;;;;;;;17.33;49.37;100915.13;100687;1331;60533;-82
2022/12/07 05:57:17;;;;;;;;;;;;;;;17.30;49.36;100918.14;100707;1331;60495;-83
2022/12/07 05:59:43;;;;;;;;;;;;;;;17.27;49.38;100917.38;100762;1330;60526;-83
2022/12/07 06:02:12;;;;;;;;;;;;;;;17.23;49.40;100917.20;100816;1329;60519;-83
2022/12/07 06:04:41;;;;;;;;;;;;;;;17.22;49.39;100917.11;101026;1325;61257;-84
2022/12/07 06:07:07;;;;;;;;;;;;;;;17.21;49.37;100917.36;101526;1325;72653;-83
2022/12/07 06:09:34;;;;;;;;;;;;;;;17.21;49.40;100923.75;101067;1323;59573;-84
2022/12/07 06:14:44;;;;;;;;;;;;;;;17.21;49.33;100928.01;101473;1327;61558;-83
2022/12/07 06:17:10;;;;;;;;;;;;;;;17.22;49.40;100927.09;101617;1323;60807;-83
2022/12/07 06:19:36;;;;;;;;;;;;;;;17.24;49.41;100926.80;101582;1325;60571;-86
2022/12/07 06:22:04;;;;;;;;;;;;;;;17.26;49.30;100930.03;101430;1320;61233;-84
2022/12/07 06:24:30;;;;;;;;;;;;;;;17.29;49.24;100934.58;101559;1318;60350;-83
2022/12/07 06:26:55;;;;;;;;;;;;;;;17.30;49.25;100933.60;101537;1313;60623;-84
2022/12/07 06:29:21;;;;;;;;;;;;;;;17.32;49.15;100936.34;101524;1317;60553;-83
2022/12/07 06:31:47;;;;;;;;;;;;;;;17.34;49.26;100940.30;102919;1320;58703;-82
2022/12/07 06:34:13;;;;;;;;;;;;;;;17.37;49.31;100938.72;101954;1316;60463;-82
2022/12/07 06:36:39;;;;;;;;;;;;;;;17.40;49.32;100937.69;102037;1325;60503;-82
2022/12/07 06:39:05;;;;;;;;;;;;;;;17.43;49.24;100939.67;101972;1320;73410;-83
2022/12/07 06:41:30;;;;;;;;;;;;;;;17.46;49.24;100938.63;101824;1331;60343;-83
2022/12/07 06:43:59;;;;;;;;;;;;;;;17.48;49.31;100933.87;101952;1320;60505;-83
2022/12/07 06:46:24;;;;;;;;;;;;;;;17.50;49.31;100934.65;101908;1319;60407;-82
2022/12/07 06:48:49;;;;;;;;;;;;;;;17.52;49.22;100932.58;101965;1318;60540;-84
2022/12/07 06:51:15;;;;;;;;;;;;;;;17.55;49.30;100938.14;102014;1313;59280;-83
2022/12/07 06:53:40;;;;;;;;;;;;;;;17.57;49.21;100940.30;101980;1321;60452;-84
2022/12/07 06:56:06;;;;;;;;;;;;;;;17.57;49.19;100933.23;101949;1319;58542;-84
2022/12/07 06:58:31;;;;;;;;;;;;;;;17.55;49.13;100932.64;102098;1325;60121;-84
2022/12/07 07:00:57;;;;;;;;;;;;;;;17.52;49.28;100927.45;102129;1319;59798;-83
2022/12/07 07:03:22;;;;;;;;;;;;;;;17.50;49.17;100927.17;101851;1318;59873;-83
2022/12/07 07:05:48;;;;;;;;;;;;;;;17.49;49.09;100925.65;101896;1321;60520;-84
2022/12/07 07:08:13;;;;;;;;;;;;;;;17.48;49.09;100928.92;101939;1313;62027;-84
2022/12/07 07:10:39;;;;;;;;;;;;;;;17.46;49.24;100925.97;101920;1321;61624;-83
2022/12/07 07:13:04;;;;;;;;;;;;;;;17.44;49.16;100926.80;101908;1334;59331;-83
2022/12/07 07:15:30;;;;;;;;;;;;;;;17.41;49.17;100928.73;101962;1321;61006;-84
2022/12/07 07:17:55;;;;;;;;;;;;;;;17.38;49.08;100925.70;101931;1314;60531;-83
2022/12/07 07:20:20;;;;;;;;;;;;;;;17.36;48.85;100929.02;102012;1318;60508;-84
2022/12/07 07:22:46;;;;;;;;;;;;;;;17.35;48.88;100929.75;101858;1318;60584;-84
2022/12/07 07:25:11;;;;;;;;;;;;;;;17.35;48.75;100934.75;101925;1314;60583;-84
2022/12/07 07:27:37;;;;;;;;;;;;;;;17.36;48.48;100938.98;101862;1321;60592;-83
2022/12/07 07:30:03;;;;;;;;;;;;;;;17.36;48.44;100931.50;101969;1320;60461;-83
2022/12/07 07:32:28;;;;;;;;;;;;;;;17.37;48.35;100930.91;101887;1318;59362;-83
2022/12/07 07:34:54;;;;;;;;;;;;;;;17.39;48.42;100928.82;101855;1320;60503;-83
2022/12/07 07:37:19;;;;;;;;;;;;;;;17.43;48.28;100931.29;101833;1318;60610;-84
2022/12/07 07:39:44;;;;;;;;;;;;;;;17.47;48.30;100930.54;101949;1325;60720;-83
2022/12/07 07:42:10;;;;;;;;;;;;;;;17.51;48.25;100933.70;101973;1316;60505;-84
2022/12/07 07:44:35;;;;;;;;;;;;;;;17.56;48.24;100938.05;101869;1319;60594;-84
2022/12/07 07:47:01;;;;;;;;;;;;;;;17.62;48.31;100943.29;102009;1316;60481;-83
2022/12/07 07:49:26;;;;;;;;;;;;;;;17.67;48.29;100944.61;101947;1320;59336;-83
2022/12/07 07:51:52;;;;;;;;;;;;;;;17.72;48.23;100943.42;101942;1319;60726;-84
2022/12/07 07:54:17;;;;;;;;;;;;;;;17.77;48.22;100946.20;101984;1319;59297;-84
2022/12/07 07:56:44;;;;;;;;;;;;;;;17.82;48.35;100947.20;101885;1317;59478;-82
2022/12/07 07:59:09;;;;;;;;;;;;;;;17.85;48.26;100945.79;101719;1324;60452;-85
2022/12/07 08:01:35;;;;;;;;;;;;;;;17.87;48.29;100943.52;102041;1316;59498;-83
2022/12/07 08:04:00;;;;;;;;;;;;;;;17.87;48.21;100945.48;101899;1320;60589;-83
2022/12/07 08:06:27;;;;;;;;;;;;;;;17.88;48.28;100944.00;102029;1317;58992;-84
2022/12/07 08:08:52;;;;;;;;;;;;;;;17.92;48.44;100949.67;101942;1318;60404;-83
2022/12/07 08:11:18;;;;;;;;;;;;;;;17.93;48.46;100947.30;102011;1313;58247;-83
2022/12/07 08:13:45;;;;;;;;;;;;;;;17.94;48.41;100946.72;102007;1316;71313;-84
2022/12/07 08:16:11;;;;;;;;;;;;;;;17.92;48.55;100947.35;101892;1318;73655;-84
2022/12/07 08:18:37;;;;;;;;;;;;;;;17.91;48.39;100947.77;101430;1319;626708;-83
2022/12/07 08:21:02;;;;;;;;;;;;;;;17.89;48.25;100947.66;101880;1319;60527;-84
2022/12/07 08:23:28;;;;;;;;;;;;;;;17.90;48.32;100945.86;102268;1321;59319;-82
2022/12/07 08:25:53;;;;;;;;;;;;;;;17.92;48.07;100945.56;101995;1321;59384;-84
2022/12/07 08:28:19;;;;;;;;;;;;;;;17.96;48.24;100950.02;101955;1314;59370;-84
2022/12/07 08:30:44;;;;;;;;;;;;;;;17.98;48.12;100943.81;101920;1319;61635;-83
2022/12/07 08:33:10;;;;;;;;;;;;;;;18.02;48.23;100942.52;101951;1313;58652;-83
2022/12/07 08:35:36;;;;;;;;;;;;;;;18.05;48.01;100951.61;101954;1318;60377;-83
2022/12/07 08:38:02;;;;;;;;;;;;;;;18.08;48.27;100953.08;101879;1313;60564;-84
2022/12/07 08:40:27;;;;;;;;;;;;;;;18.11;48.25;100957.19;101864;1313;60488;-83
2022/12/07 08:42:53;;;;;;;;;;;;;;;18.14;48.23;100954.15;101871;1319;60494;-83
2022/12/07 08:45:18;;;;;;;;;;;;;;;18.18;48.12;100941.84;101979;1312;60580;-83
2022/12/07 08:47:45;;;;;;;;;;;;;;;18.20;48.15;100932.80;101901;1317;60625;-83
2022/12/07 08:50:11;;;;;;;;;;;;;;;18.22;48.21;100933.23;102388;1321;59395;-83
2022/12/07 08:52:36;;;;;;;;;;;;;;;18.25;48.33;100927.88;101927;1314;60552;-83
2022/12/07 08:55:02;;;;;;;;;;;;;;;18.28;48.25;100925.41;101923;1313;60678;-82
2022/12/07 08:57:28;;;;;;;;;;;;;;;18.30;48.25;100921.21;101824;1313;60379;-82
2022/12/07 08:59:54;;;;;;;;;;;;;;;18.32;48.43;100928.58;101790;1321;60471;-83
2022/12/07 09:02:19;;;;;;;;;;;;;;;18.34;48.49;100934.48;101853;1320;60633;-83
2022/12/07 09:04:45;;;;;;;;;;;;;;;18.35;48.37;100932.12;102655;1337;60799;-84
2022/12/07 09:07:36;;;;;;;;;;;;;;;18.36;48.54;100923.68;101837;1319;60937;-84
2022/12/07 09:10:02;;;;;;;;;;;;;;;18.33;48.37;100915.85;101527;1326;72949;-84
2022/12/07 09:12:28;;;;;;;;;;;;;;;18.29;48.68;100915.36;101562;1326;60483;-84
2022/12/07 09:14:53;;;;;;;;;;;;;;;18.26;48.56;100911.24;101472;1327;58811;-83
2022/12/07 09:17:19;;;;;;;;;;;;;;;18.24;48.45;100904.23;101495;1327;59426;-84
2022/12/07 09:19:44;;;;;;;;;;;;;;;18.25;48.39;100905.44;101596;1330;59329;-83
2022/12/07 09:22:10;;;;;;;;;;;;;;;18.26;48.34;100905.92;101385;1322;73914;-84
2022/12/07 09:24:35;;;;;;;;;;;;;;;18.28;48.55;100907.95;101207;1322;60618;-83
2022/12/07 09:27:02;;;;;;;;;;;;;;;18.31;48.57;100907.60;101077;1327;60491;-83
2022/12/07 09:29:27;;;;;;;;;;;;;;;18.34;48.47;100912.05;101078;1325;60602;-82
2022/12/07 09:31:53;;;;;;;;;;;;;;;18.36;48.42;100913.33;101117;1325;60552;-83
2022/12/07 09:34:18;;;;;;;;;;;;;;;18.40;48.81;100911.20;101194;1322;60629;-85
2022/12/07 09:36:44;;;;;;;;;;;;;;;18.42;48.43;100898.21;101111;1326;74872;-83
2022/12/07 09:39:09;;;;;;;;;;;;;;;18.45;48.60;100889.52;101334;1325;60508;-83
2022/12/07 09:41:37;;;;;;;;;;;;;;;18.47;48.66;100886.52;101130;1325;60686;-83
2022/12/07 09:44:13;;;;;;;;;;;;;;;18.49;48.66;100885.50;101086;1325;60774;-83
2022/12/07 09:46:39;;;;;;;;;;;;;;;18.51;48.78;100881.11;101231;1324;74682;-85
2022/12/07 09:49:05;;;;;;;;;;;;;;;18.53;48.79;100876.00;101541;1317;60516;-83
2022/12/07 09:51:30;;;;;;;;;;;;;;;18.56;48.88;100872.83;101584;1317;61138;-82
2022/12/07 09:53:56;;;;;;;;;;;;;;;18.57;48.87;100867.55;101608;1314;60542;-83
2022/12/07 09:56:22;;;;;;;;;;;;;;;18.59;48.95;100864.05;101425;1313;60531;-84
2022/12/07 09:58:48;;;;;;;;;;;;;;;18.61;48.94;100868.80;101508;1313;60568;-84
2022/12/07 10:01:18;;;;;;;;;;;;;;;18.62;48.99;100867.32;101415;1313;60458;-84
2022/12/07 10:03:55;;;;;;;;;;;;;;;18.62;49.08;100872.14;101312;1319;60473;-84
2022/12/07 10:06:20;;;;;;;;;;;;;;;18.57;49.01;100873.45;101316;1313;73832;-85
2022/12/07 10:08:46;;;;;;;;;;;;;;;18.52;49.11;100880.52;101381;1317;60787;-84
2022/12/07 10:11:11;;;;;;;;;;;;;;;18.50;49.15;100878.36;101311;1316;60565;-83
2022/12/07 10:13:38;;;;;;;;;;;;;;;18.47;49.07;100877.27;101510;1314;60467;-84
2022/12/07 10:16:03;;;;;;;;;;;;;;;18.44;49.11;100881.36;101498;1318;60615;-84
2022/12/07 10:19:01;;;;;;;;;;;;;;;18.39;49.08;100870.60;101435;1314;60544;-84
2022/12/07 10:21:26;;;;;;;;;;;;;;;18.34;48.96;100859.51;101028;1326;60555;-85
2022/12/07 10:24:00;;;;;;;;;;;;;;;18.29;48.90;100852.15;101114;1327;59563;-85
2022/12/07 10:26:35;;;;;;;;;;;;;;;18.24;48.89;100849.03;102209;1334;73509;-84
2022/12/07 10:29:17;;;;;;;;;;;;;;;18.22;48.75;100855.71;102319;1326;74973;-84
2022/12/07 10:31:43;;;;;;;;;;;;;;;18.20;48.63;100856.73;101248;1325;61347;-85
2022/12/07 10:34:20;;;;;;;;;;;;;;;18.19;48.58;100855.03;101149;1325;60527;-84
2022/12/07 10:36:46;;;;;;;;;;;;;;;18.16;48.49;100848.05;101181;1319;73707;-84
2022/12/07 10:39:20;;;;;;;;;;;;;;;18.16;48.19;100848.60;101130;1324;60587;-84
2022/12/07 10:41:56;;;;;;;;;;;;;;;18.18;48.43;100852.77;101188;1319;60877;-84
2022/12/07 10:44:22;;;;;;;;;;;;;;;18.21;48.49;100856.86;101095;1328;61999;-84
2022/12/07 10:47:10;;;;;;;;;;;;;;;18.21;48.60;100849.75;101156;1320;60607;-83
2022/12/07 10:50:05;;;;;;;;;;;;;;;18.19;48.60;100844.31;101224;1323;73673;-83
2022/12/07 10:52:38;;;;;;;;;;;;;;;18.18;48.22;100836.23;100233;1337;59890;-83
2022/12/07 10:55:16;;;;;;;;;;;;;;;18.17;48.32;100835.20;100322;1337;61047;-84
2022/12/07 10:57:56;;;;;;;;;;;;;;;18.15;48.41;100837.63;100182;1338;73643;-84
2022/12/07 11:00:23;;;;;;;;;;;;;;;18.14;48.39;100842.48;100673;1327;74864;-83
2022/12/07 11:02:51;;;;;;;;;;;;;;;18.12;48.30;100846.86;100306;1334;61265;-82
2022/12/07 11:05:19;;;;;;;;;;;;;;;18.08;48.36;100845.84;100521;1327;60108;-84
2022/12/07 11:07:51;;;;;;;;;;;;;;;18.05;48.41;100844.77;100546;1334;72454;-82
2022/12/07 11:10:27;;;;;;;;;;;;;;;18.01;48.29;100850.34;100481;1334;73548;-82
2022/12/07 11:12:56;;;;;;;;;;;;;;;18.00;48.13;100852.92;101697;1327;61766;-85
2022/12/07 11:15:31;;;;;;;;;;;;;;;17.98;48.11;100846.63;101665;1331;60444;-84
2022/12/07 11:18:35;;;;;;;;;;;;;;;17.95;48.17;100844.27;101817;1334;72503;-84
2022/12/07 11:21:06;;;;;;;;;;;;;;;17.93;48.23;100839.77;101323;1335;73665;-84
2022/12/07 11:23:44;;;;;;;;;;;;;;;17.92;48.13;100839.08;101043;1337;61406;-84
2022/12/07 11:26:28;;;;;;;;;;;;;;;17.93;48.08;100841.00;100042;1337;60365;-85
2022/12/07 11:28:54;;;;;;;;;;;;;;;17.95;48.00;100838.06;100580;1319;71889;-84
2022/12/07 11:31:33;;;;;;;;;;;;;;;17.96;48.14;100833.92;101283;1326;60499;-84
2022/12/07 11:34:04;;;;;;;;;;;;;;;17.97;48.05;100822.65;100973;1318;60513;-84
2022/12/07 11:36:41;;;;;;;;;;;;;;;17.95;48.09;100819.89;100909;1318;60360;-84
2022/12/07 11:39:27;;;;;;;;;;;;;;;17.92;48.13;100806.16;100881;1325;73919;-84
2022/12/07 11:41:54;;;;;;;;;;;;;;;17.89;48.03;100806.63;100896;1326;72938;-83
2022/12/07 11:44:32;;;;;;;;;;;;;;;17.89;47.89;100805.80;100844;1325;60467;-83
2022/12/07 11:47:01;;;;;;;;;;;;;;;17.88;47.94;100802.29;100944;1320;62764;-84
2022/12/07 11:49:27;;;;;;;;;;;;;;;17.87;48.05;100800.35;101031;1322;71698;-85
2022/12/07 11:51:54;;;;;;;;;;;;;;;17.87;47.86;100796.63;101256;1320;73647;-84
2022/12/07 11:54:21;;;;;;;;;;;;;;;17.87;47.82;100796.45;101427;1313;60533;-84
2022/12/07 11:56:47;;;;;;;;;;;;;;;17.87;47.78;100795.55;101397;1319;60362;-85
2022/12/07 11:59:25;;;;;;;;;;;;;;;17.85;47.66;100793.35;101896;1313;60538;-84
2022/12/07 12:01:53;;;;;;;;;;;;;;;17.81;47.68;100792.02;101472;1313;73504;-83
2022/12/07 12:04:33;;;;;;;;;;;;;;;17.74;47.45;100790.75;101426;1313;60459;-83
2022/12/07 12:06:58;;;;;;;;;;;;;;;17.70;47.61;100792.42;101364;1319;60441;-85
2022/12/07 12:09:29;;;;;;;;;;;;;;;17.69;47.69;100789.25;101482;1317;61059;-83
2022/12/07 12:11:57;;;;;;;;;;;;;;;17.70;47.64;100788.17;101687;1329;72381;-82
2022/12/07 12:14:36;;;;;;;;;;;;;;;17.70;47.77;100788.90;102184;1321;60319;-83
2022/12/07 12:17:04;;;;;;;;;;;;;;;17.74;47.70;100781.69;101880;1316;60111;-83
2022/12/07 12:19:38;;;;;;;;;;;;;;;17.80;47.77;100779.05;101794;1321;72412;-84
2022/12/07 12:22:14;;;;;;;;;;;;;;;17.84;47.71;100767.45;102044;1321;73788;-83
2022/12/07 12:24:41;;;;;;;;;;;;;;;17.85;47.62;100769.69;102039;1313;60903;-83
2022/12/07 12:27:10;;;;;;;;;;;;;;;17.84;47.61;100764.95;101935;1320;60049;-83
2022/12/07 12:29:37;;;;;;;;;;;;;;;17.83;47.30;100753.42;101963;1320;72632;-83
2022/12/07 12:32:22;;;;;;;;;;;;;;;17.81;47.34;100756.02;102105;1321;58453;-83
2022/12/07 12:34:47;;;;;;;;;;;;;;;17.78;47.19;100753.16;101598;1321;61285;-82